sensor_id;sensor_type;location;lat;lon;timestamp;pressure;altitude;pressure_sealevel;temperature;humidity
59588;BME280;45412;54.472;18.464;2023-01-25T00:00:04;101952.39;;;-1.33;87.09
59588;BME280;45412;54.472;18.464;2023-01-25T00:03:13;101947.33;;;-1.33;87.22
59588;BME280;45412;54.472;18.464;2023-01-25T00:06:01;101943.33;;;-1.36;87.55
59588;BME280;45412;54.472;18.464;2023-01-25T00:08:50;101941.41;;;-1.37;87.57
59588;BME280;45412;54.472;18.464;2023-01-25T00:11:38;101935.81;;;-1.39;87.59
59588;BME280;45412;54.472;18.464;2023-01-25T00:14:27;101930.25;;;-1.41;87.95
59588;BME280;45412;54.472;18.464;2023-01-25T00:17:15;101925.38;;;-1.41;87.90
59588;BME280;45412;54.472;18.464;2023-01-25T00:20:04;101926.77;;;-1.43;87.86
59588;BME280;45412;54.472;18.464;2023-01-25T00:22:52;101922.58;;;-1.47;88.07
59588;BME280;45412;54.472;18.464;2023-01-25T00:25:40;101915.27;;;-1.51;88.19
59588;BME280;45412;54.472;18.464;2023-01-25T00:28:28;101912.48;;;-1.54;88.42
59588;BME280;45412;54.472;18.464;2023-01-25T00:40:06;101884.60;;;-1.61;88.98
59588;BME280;45412;54.472;18.464;2023-01-25T00:42:53;101881.29;;;-1.66;89.02
59588;BME280;45412;54.472;18.464;2023-01-25T00:45:42;101882.14;;;-1.73;89.27
59588;BME280;45412;54.472;18.464;2023-01-25T00:48:30;101882.14;;;-1.78;89.59
59588;BME280;45412;54.472;18.464;2023-01-25T00:51:20;101872.89;;;-1.82;89.81
59588;BME280;45412;54.472;18.464;2023-01-25T00:54:08;101868.19;;;-1.82;89.56
59588;BME280;45412;54.472;18.464;2023-01-25T00:56:56;101861.05;;;-1.82;89.61
59588;BME280;45412;54.472;18.464;2023-01-25T00:59:45;101858.45;;;-1.81;89.43
59588;BME280;45412;54.472;18.464;2023-01-25T01:02:34;101857.05;;;-1.83;89.43
59588;BME280;45412;54.472;18.464;2023-01-25T01:05:22;101848.34;;;-1.90;89.82
59588;BME280;45412;54.472;18.464;2023-01-25T01:08:13;101841.54;;;-1.95;89.85
59588;BME280;45412;54.472;18.464;2023-01-25T01:11:05;101841.71;;;-1.99;89.87
59588;BME280;45412;54.472;18.464;2023-01-25T01:13:56;101845.36;;;-2.00;89.88
59588;BME280;45412;54.472;18.464;2023-01-25T01:16:44;101848.48;;;-2.00;90.04
59588;BME280;45412;54.472;18.464;2023-01-25T01:19:32;101849.70;;;-2.04;90.18
59588;BME280;45412;54.472;18.464;2023-01-25T01:22:20;101846.36;;;-2.09;90.11
59588;BME280;45412;54.472;18.464;2023-01-25T01:25:08;101850.70;;;-2.13;90.14
59588;BME280;45412;54.472;18.464;2023-01-25T01:27:57;101852.60;;;-2.18;90.11
59588;BME280;45412;54.472;18.464;2023-01-25T01:30:45;101854.68;;;-2.21;89.93
59588;BME280;45412;54.472;18.464;2023-01-25T01:33:33;101860.58;;;-2.22;90.09
59588;BME280;45412;54.472;18.464;2023-01-25T01:36:25;101854.49;;;-2.24;89.98
59588;BME280;45412;54.472;18.464;2023-01-25T01:39:13;101843.88;;;-2.24;89.69
59588;BME280;45412;54.472;18.464;2023-01-25T01:42:02;101842.33;;;-2.25;89.74
59588;BME280;45412;54.472;18.464;2023-01-25T01:44:52;101837.09;;;-2.28;89.45
59588;BME280;45412;54.472;18.464;2023-01-25T01:47:41;101833.41;;;-2.34;89.39
59588;BME280;45412;54.472;18.464;2023-01-25T01:50:33;101830.45;;;-2.40;89.57
59588;BME280;45412;54.472;18.464;2023-01-25T01:53:23;101828.68;;;-2.40;89.58
59588;BME280;45412;54.472;18.464;2023-01-25T01:56:18;101828.86;;;-2.40;89.64
59588;BME280;45412;54.472;18.464;2023-01-25T01:59:09;101825.55;;;-2.45;89.36
59588;BME280;45412;54.472;18.464;2023-01-25T02:01:57;101818.60;;;-2.42;89.48
59588;BME280;45412;54.472;18.464;2023-01-25T02:04:47;101816.84;;;-2.47;89.43
59588;BME280;45412;54.472;18.464;2023-01-25T02:07:37;101818.73;;;-2.51;89.42
59588;BME280;45412;54.472;18.464;2023-01-25T02:10:26;101809.52;;;-2.52;89.57
59588;BME280;45412;54.472;18.464;2023-01-25T02:13:18;101806.57;;;-2.53;89.56
59588;BME280;45412;54.472;18.464;2023-01-25T02:16:14;101808.30;;;-2.55;89.45
59588;BME280;45412;54.472;18.464;2023-01-25T02:19:06;101818.02;;;-2.57;89.33
59588;BME280;45412;54.472;18.464;2023-01-25T02:21:56;101816.77;;;-2.61;89.32
59588;BME280;45412;54.472;18.464;2023-01-25T02:24:55;101806.32;;;-2.69;89.40
59588;BME280;45412;54.472;18.464;2023-01-25T02:28:13;101816.40;;;-2.66;89.29
59588;BME280;45412;54.472;18.464;2023-01-25T02:31:03;101813.10;;;-2.69;89.39
59588;BME280;45412;54.472;18.464;2023-01-25T02:33:52;101820.73;;;-2.68;89.44
59588;BME280;45412;54.472;18.464;2023-01-25T02:36:40;101817.81;;;-2.64;89.59
59588;BME280;45412;54.472;18.464;2023-01-25T02:39:28;101810.16;;;-2.63;89.23
59588;BME280;45412;54.472;18.464;2023-01-25T02:42:16;101802.69;;;-2.64;89.18
59588;BME280;45412;54.472;18.464;2023-01-25T02:45:05;101794.33;;;-2.68;89.23
59588;BME280;45412;54.472;18.464;2023-01-25T02:47:56;101799.05;;;-2.64;89.39
59588;BME280;45412;54.472;18.464;2023-01-25T02:50:44;101788.95;;;-2.65;89.05
59588;BME280;45412;54.472;18.464;2023-01-25T02:53:32;101789.30;;;-2.68;89.06
59588;BME280;45412;54.472;18.464;2023-01-25T02:56:21;101786.30;;;-2.75;89.09
59588;BME280;45412;54.472;18.464;2023-01-25T02:59:10;101787.17;;;-2.76;88.57
59588;BME280;45412;54.472;18.464;2023-01-25T03:02:01;101792.02;;;-2.79;88.68
59588;BME280;45412;54.472;18.464;2023-01-25T03:04:50;101796.17;;;-2.82;88.47
59588;BME280;45412;54.472;18.464;2023-01-25T03:07:38;101795.29;;;-2.85;88.42
59588;BME280;45412;54.472;18.464;2023-01-25T03:10:26;101794.93;;;-2.88;88.76
59588;BME280;45412;54.472;18.464;2023-01-25T03:13:15;101781.70;;;-2.91;88.62
59588;BME280;45412;54.472;18.464;2023-01-25T03:16:07;101775.63;;;-2.92;88.68
59588;BME280;45412;54.472;18.464;2023-01-25T03:18:57;101773.86;;;-2.95;88.69
59588;BME280;45412;54.472;18.464;2023-01-25T03:21:45;101773.01;;;-2.95;88.98
59588;BME280;45412;54.472;18.464;2023-01-25T03:24:33;101775.45;;;-2.93;89.19
59588;BME280;45412;54.472;18.464;2023-01-25T03:27:22;101773.16;;;-2.97;89.21
59588;BME280;45412;54.472;18.464;2023-01-25T03:30:14;101770.01;;;-3.02;89.14
59588;BME280;45412;54.472;18.464;2023-01-25T03:33:02;101766.00;;;-3.03;89.32
59588;BME280;45412;54.472;18.464;2023-01-25T03:35:54;101764.09;;;-3.02;89.46
59588;BME280;45412;54.472;18.464;2023-01-25T03:38:42;101760.45;;;-3.01;89.67
59588;BME280;45412;54.472;18.464;2023-01-25T03:41:31;101758.39;;;-3.00;89.40
59588;BME280;45412;54.472;18.464;2023-01-25T03:44:19;101751.24;;;-3.02;89.59
59588;BME280;45412;54.472;18.464;2023-01-25T03:47:07;101743.23;;;-3.05;89.86
59588;BME280;45412;54.472;18.464;2023-01-25T03:49:55;101748.13;;;-3.02;89.81
59588;BME280;45412;54.472;18.464;2023-01-25T03:52:43;101744.97;;;-3.06;90.13
59588;BME280;45412;54.472;18.464;2023-01-25T03:55:34;101740.27;;;-3.07;90.21
59588;BME280;45412;54.472;18.464;2023-01-25T03:58:23;101737.34;;;-3.04;90.41
59588;BME280;45412;54.472;18.464;2023-01-25T04:01:12;101735.60;;;-3.04;90.42
59588;BME280;45412;54.472;18.464;2023-01-25T04:04:00;101730.55;;;-3.06;90.52
59588;BME280;45412;54.472;18.464;2023-01-25T04:06:48;101730.90;;;-3.06;90.84
59588;BME280;45412;54.472;18.464;2023-01-25T04:09:37;101716.48;;;-3.09;90.84
59588;BME280;45412;54.472;18.464;2023-01-25T04:12:26;101709.53;;;-3.09;91.27
59588;BME280;45412;54.472;18.464;2023-01-25T04:15:14;101709.02;;;-3.10;91.52
59588;BME280;45412;54.472;18.464;2023-01-25T04:18:02;101710.95;;;-3.05;91.66
59588;BME280;45412;54.472;18.464;2023-01-25T04:20:55;101708.17;;;-3.03;91.81
59588;BME280;45412;54.472;18.464;2023-01-25T04:23:43;101709.05;;;-3.02;91.67
59588;BME280;45412;54.472;18.464;2023-01-25T04:26:31;101708.70;;;-3.01;92.21
59588;BME280;45412;54.472;18.464;2023-01-25T04:29:20;101707.83;;;-3.00;92.15
59588;BME280;45412;54.472;18.464;2023-01-25T04:32:22;101701.23;;;-2.99;92.08
59588;BME280;45412;54.472;18.464;2023-01-25T04:35:10;101699.52;;;-2.96;92.26
59588;BME280;45412;54.472;18.464;2023-01-25T04:37:59;101696.58;;;-2.95;92.51
59588;BME280;45412;54.472;18.464;2023-01-25T04:40:53;101691.70;;;-2.94;92.56
59588;BME280;45412;54.472;18.464;2023-01-25T04:43:44;101684.59;;;-2.94;93.01
59588;BME280;45412;54.472;18.464;2023-01-25T04:46:33;101672.77;;;-2.94;93.22
59588;BME280;45412;54.472;18.464;2023-01-25T04:49:21;101668.95;;;-2.96;93.90
59588;BME280;45412;54.472;18.464;2023-01-25T04:52:09;101667.22;;;-2.95;94.02
59588;BME280;45412;54.472;18.464;2023-01-25T04:54:57;101666.01;;;-2.93;94.13
59588;BME280;45412;54.472;18.464;2023-01-25T04:57:48;101665.48;;;-2.93;94.52
59588;BME280;45412;54.472;18.464;2023-01-25T05:00:37;101662.55;;;-2.90;94.42
59588;BME280;45412;54.472;18.464;2023-01-25T05:03:25;101654.20;;;-2.90;94.75
59588;BME280;45412;54.472;18.464;2023-01-25T05:06:14;101655.07;;;-2.92;94.87
59588;BME280;45412;54.472;18.464;2023-01-25T05:09:02;101657.14;;;-2.91;94.81
59588;BME280;45412;54.472;18.464;2023-01-25T05:11:50;101655.42;;;-2.90;95.09
59588;BME280;45412;54.472;18.464;2023-01-25T05:14:54;101656.83;;;-2.86;94.80
59588;BME280;45412;54.472;18.464;2023-01-25T05:17:42;101666.73;;;-2.83;94.98
59588;BME280;45412;54.472;18.464;2023-01-25T05:20:30;101673.86;;;-2.80;95.11
59588;BME280;45412;54.472;18.464;2023-01-25T05:23:18;101671.79;;;-2.78;95.06
59588;BME280;45412;54.472;18.464;2023-01-25T05:26:07;101668.15;;;-2.74;94.70
59588;BME280;45412;54.472;18.464;2023-01-25T05:29:13;101663.47;;;-2.71;94.78
59588;BME280;45412;54.472;18.464;2023-01-25T05:32:21;101660.17;;;-2.69;94.67
59588;BME280;45412;54.472;18.464;2023-01-25T05:35:09;101666.10;;;-2.66;94.40
59588;BME280;45412;54.472;18.464;2023-01-25T05:37:58;101658.98;;;-2.62;94.37
59588;BME280;45412;54.472;18.464;2023-01-25T05:40:47;101660.03;;;-2.57;94.17
59588;BME280;45412;54.472;18.464;2023-01-25T05:43:35;101664.02;;;-2.54;94.11
59588;BME280;45412;54.472;18.464;2023-01-25T05:46:26;101664.04;;;-2.51;93.98
59588;BME280;45412;54.472;18.464;2023-01-25T05:49:16;101657.09;;;-2.51;93.69
59588;BME280;45412;54.472;18.464;2023-01-25T05:52:04;101658.30;;;-2.51;93.51
59588;BME280;45412;54.472;18.464;2023-01-25T05:54:53;101652.73;;;-2.51;93.73
59588;BME280;45412;54.472;18.464;2023-01-25T05:57:41;101648.21;;;-2.57;93.65
59588;BME280;45412;54.472;18.464;2023-01-25T06:00:29;101655.86;;;-2.54;93.85
59588;BME280;45412;54.472;18.464;2023-01-25T06:03:16;101656.73;;;-2.51;94.00
59588;BME280;45412;54.472;18.464;2023-01-25T06:06:05;101656.22;;;-2.50;93.95
59588;BME280;45412;54.472;18.464;2023-01-25T06:08:54;101654.48;;;-2.48;93.88
59588;BME280;45412;54.472;18.464;2023-01-25T06:11:43;101653.61;;;-2.48;93.73
59588;BME280;45412;54.472;18.464;2023-01-25T06:14:33;101653.61;;;-2.47;93.83
59588;BME280;45412;54.472;18.464;2023-01-25T06:17:22;101656.39;;;-2.47;93.95
59588;BME280;45412;54.472;18.464;2023-01-25T06:20:39;101652.40;;;-2.48;93.90
59588;BME280;45412;54.472;18.464;2023-01-25T06:23:27;101647.89;;;-2.48;93.91
59588;BME280;45412;54.472;18.464;2023-01-25T06:26:16;101644.41;;;-2.47;93.84
59588;BME280;45412;54.472;18.464;2023-01-25T06:29:05;101641.09;;;-2.46;93.77
59588;BME280;45412;54.472;18.464;2023-01-25T06:31:53;101633.45;;;-2.46;93.87
59588;BME280;45412;54.472;18.464;2023-01-25T06:34:42;101638.33;;;-2.43;93.46
59588;BME280;45412;54.472;18.464;2023-01-25T06:37:36;101633.30;;;-2.44;93.42
59588;BME280;45412;54.472;18.464;2023-01-25T06:40:25;101635.02;;;-2.42;93.51
59588;BME280;45412;54.472;18.464;2023-01-25T06:43:13;101635.02;;;-2.38;93.60
59588;BME280;45412;54.472;18.464;2023-01-25T06:46:04;101635.03;;;-2.37;93.40
59588;BME280;45412;54.472;18.464;2023-01-25T06:48:52;101634.14;;;-2.36;93.32
59588;BME280;45412;54.472;18.464;2023-01-25T06:51:40;101629.98;;;-2.40;93.21
59588;BME280;45412;54.472;18.464;2023-01-25T06:54:28;101634.33;;;-2.38;93.01
59588;BME280;45412;54.472;18.464;2023-01-25T06:57:16;101636.23;;;-2.39;93.05
59588;BME280;45412;54.472;18.464;2023-01-25T07:00:07;101630.15;;;-2.38;93.14
59588;BME280;45412;54.472;18.464;2023-01-25T07:02:55;101628.08;;;-2.37;93.21
59588;BME280;45412;54.472;18.464;2023-01-25T07:05:43;101629.64;;;-2.38;93.18
59588;BME280;45412;54.472;18.464;2023-01-25T07:08:33;101622.67;;;-2.39;93.12
59588;BME280;45412;54.472;18.464;2023-01-25T07:11:21;101632.42;;;-2.38;93.01
59588;BME280;45412;54.472;18.464;2023-01-25T07:14:09;101633.80;;;-2.37;93.04
59588;BME280;45412;54.472;18.464;2023-01-25T07:16:58;101634.15;;;-2.34;93.04
59588;BME280;45412;54.472;18.464;2023-01-25T07:19:48;101630.34;;;-2.29;93.15
59588;BME280;45412;54.472;18.464;2023-01-25T07:22:36;101621.13;;;-2.25;92.71
59588;BME280;45412;54.472;18.464;2023-01-25T07:25:24;101615.04;;;-2.20;92.64
59588;BME280;45412;54.472;18.464;2023-01-25T07:28:13;101619.90;;;-2.14;92.67
59588;BME280;45412;54.472;18.464;2023-01-25T07:31:05;101617.98;;;-2.09;92.36
59588;BME280;45412;54.472;18.464;2023-01-25T07:33:56;101622.67;;;-2.11;91.61
59588;BME280;45412;54.472;18.464;2023-01-25T07:36:44;101619.73;;;-2.11;91.78
59588;BME280;45412;54.472;18.464;2023-01-25T07:39:33;101618.33;;;-2.10;91.73
59588;BME280;45412;54.472;18.464;2023-01-25T07:42:22;101616.08;;;-2.07;91.86
59588;BME280;45412;54.472;18.464;2023-01-25T07:45:27;101611.20;;;-2.04;91.82
59588;BME280;45412;54.472;18.464;2023-01-25T07:48:19;101606.68;;;-1.99;91.77
59588;BME280;45412;54.472;18.464;2023-01-25T07:51:09;101600.41;;;-1.95;91.40
59588;BME280;45412;54.472;18.464;2023-01-25T07:54:10;101600.05;;;-1.93;91.19
59588;BME280;45412;54.472;18.464;2023-01-25T07:56:58;101605.78;;;-1.89;91.13
59588;BME280;45412;54.472;18.464;2023-01-25T07:59:46;101598.30;;;-1.85;90.78
59588;BME280;45412;54.472;18.464;2023-01-25T08:02:34;101595.18;;;-1.86;90.20
59588;BME280;45412;54.472;18.464;2023-01-25T08:05:23;101594.48;;;-1.88;90.29
59588;BME280;45412;54.472;18.464;2023-01-25T08:08:11;101589.27;;;-1.87;90.28
59588;BME280;45412;54.472;18.464;2023-01-25T08:11:24;101591.88;;;-1.89;90.13
59588;BME280;45412;54.472;18.464;2023-01-25T08:14:13;101590.48;;;-1.95;90.15
59588;BME280;45412;54.472;18.464;2023-01-25T08:17:01;101587.17;;;-1.95;90.30
59588;BME280;45412;54.472;18.464;2023-01-25T08:19:49;101580.73;;;-1.87;90.48
59588;BME280;45412;54.472;18.464;2023-01-25T08:22:37;101582.29;;;-1.79;90.20
59588;BME280;45412;54.472;18.464;2023-01-25T08:25:25;101577.94;;;-1.78;89.77
59588;BME280;45412;54.472;18.464;2023-01-25T08:28:13;101576.18;;;-1.76;89.59
59588;BME280;45412;54.472;18.464;2023-01-25T08:31:05;101576.35;;;-1.75;89.39
59588;BME280;45412;54.472;18.464;2023-01-25T08:33:54;101575.84;;;-1.76;89.08
59588;BME280;45412;54.472;18.464;2023-01-25T08:36:43;101576.88;;;-1.74;89.12
59588;BME280;45412;54.472;18.464;2023-01-25T08:39:30;101576.86;;;-1.70;89.12
59588;BME280;45412;54.472;18.464;2023-01-25T08:42:18;101573.54;;;-1.68;88.66
59588;BME280;45412;54.472;18.464;2023-01-25T08:45:09;101570.60;;;-1.73;88.24
59588;BME280;45412;54.472;18.464;2023-01-25T08:47:57;101570.61;;;-1.77;88.25
59588;BME280;45412;54.472;18.464;2023-01-25T08:50:46;101564.88;;;-1.81;88.34
59588;BME280;45412;54.472;18.464;2023-01-25T08:53:34;101564.36;;;-1.80;88.72
59588;BME280;45412;54.472;18.464;2023-01-25T08:56:21;101563.47;;;-1.74;89.33
59588;BME280;45412;54.472;18.464;2023-01-25T08:59:11;101558.94;;;-1.73;88.74
59588;BME280;45412;54.472;18.464;2023-01-25T09:01:59;101562.41;;;-1.68;88.42
59588;BME280;45412;54.472;18.464;2023-01-25T09:04:48;101563.27;;;-1.66;88.19
59588;BME280;45412;54.472;18.464;2023-01-25T09:07:35;101562.23;;;-1.68;87.82
59588;BME280;45412;54.472;18.464;2023-01-25T09:10:25;101562.06;;;-1.69;88.10
59588;BME280;45412;54.472;18.464;2023-01-25T09:13:13;101565.88;;;-1.61;88.47
59588;BME280;45412;54.472;18.464;2023-01-25T09:16:05;101562.20;;;-1.53;87.57
59588;BME280;45412;54.472;18.464;2023-01-25T09:19:04;101553.48;;;-1.53;87.21
59588;BME280;45412;54.472;18.464;2023-01-25T09:21:52;101556.26;;;-1.51;87.08
59588;BME280;45412;54.472;18.464;2023-01-25T09:24:40;101550.88;;;-1.54;86.99
59588;BME280;45412;54.472;18.464;2023-01-25T09:27:28;101551.55;;;-1.49;87.35
59588;BME280;45412;54.472;18.464;2023-01-25T09:30:17;101545.61;;;-1.44;86.96
59588;BME280;45412;54.472;18.464;2023-01-25T09:33:07;101543.48;;;-1.38;86.56
59588;BME280;45412;54.472;18.464;2023-01-25T09:35:55;101536.17;;;-1.33;85.80
59588;BME280;45412;54.472;18.464;2023-01-25T09:38:43;101526.42;;;-1.38;85.33
59588;BME280;45412;54.472;18.464;2023-01-25T09:47:43;101510.92;;;-1.38;85.83
59588;BME280;45412;54.472;18.464;2023-01-25T09:53:50;101498.26;;;-1.13;84.93
59588;BME280;45412;54.472;18.464;2023-01-25T09:56:40;101492.33;;;-1.11;84.19
59588;BME280;45412;54.472;18.464;2023-01-25T09:59:29;101485.50;;;-1.10;84.15
59588;BME280;45412;54.472;18.464;2023-01-25T10:05:57;101476.09;;;-1.08;83.61
59588;BME280;45412;54.472;18.464;2023-01-25T10:09:01;101465.10;;;-1.06;83.18
59588;BME280;45412;54.472;18.464;2023-01-25T10:11:51;101456.62;;;-0.90;82.72
59588;BME280;45412;54.472;18.464;2023-01-25T10:14:39;101452.29;;;-0.53;81.14
59588;BME280;45412;54.472;18.464;2023-01-25T10:17:39;101451.52;;;-0.28;79.73
59588;BME280;45412;54.472;18.464;2023-01-25T10:20:47;101446.11;;;-0.29;78.76
59588;BME280;45412;54.472;18.464;2023-01-25T10:23:59;101433.84;;;-0.22;79.05
59588;BME280;45412;54.472;18.464;2023-01-25T10:26:57;101425.20;;;-0.14;78.39
59588;BME280;45412;54.472;18.464;2023-01-25T10:29:51;101424.98;;;-0.10;78.63
59588;BME280;45412;54.472;18.464;2023-01-25T10:32:42;101418.73;;;0.00;78.51
59588;BME280;45412;54.472;18.464;2023-01-25T10:35:45;101417.58;;;0.23;77.91
59588;BME280;45412;54.472;18.464;2023-01-25T10:38:41;101401.51;;;0.72;77.32
59588;BME280;45412;54.472;18.464;2023-01-25T10:41:38;101400.20;;;1.75;76.66
59588;BME280;45412;54.472;18.464;2023-01-25T10:44:27;101394.68;;;4.02;67.07
59588;BME280;45412;54.472;18.464;2023-01-25T10:47:48;101384.63;;;5.86;59.51
59588;BME280;45412;54.472;18.464;2023-01-25T10:53:35;101360.92;;;8.02;50.43
59588;BME280;45412;54.472;18.464;2023-01-25T10:56:24;101351.02;;;8.25;48.46
59588;BME280;45412;54.472;18.464;2023-01-25T10:59:27;101345.55;;;9.36;46.35
59588;BME280;45412;54.472;18.464;2023-01-25T11:05:36;101335.49;;;11.34;43.37
59588;BME280;45412;54.472;18.464;2023-01-25T11:11:35;101324.55;;;11.79;39.78
59588;BME280;45412;54.472;18.464;2023-01-25T11:14:27;101310.22;;;12.21;39.63
59588;BME280;45412;54.472;18.464;2023-01-25T11:17:28;101301.15;;;12.32;37.78
59588;BME280;45412;54.472;18.464;2023-01-25T11:20:19;101300.70;;;12.42;37.29
59588;BME280;45412;54.472;18.464;2023-01-25T11:23:26;101298.70;;;12.31;36.37
59588;BME280;45412;54.472;18.464;2023-01-25T11:26:16;101296.73;;;12.31;37.25
59588;BME280;45412;54.472;18.464;2023-01-25T11:31:58;101272.05;;;12.09;36.87
59588;BME280;45412;54.472;18.464;2023-01-25T11:34:47;101265.89;;;11.71;36.06
59588;BME280;45412;54.472;18.464;2023-01-25T11:38:06;101264.20;;;10.94;37.27
59588;BME280;45412;54.472;18.464;2023-01-25T11:41:24;101265.77;;;10.74;37.99
59588;BME280;45412;54.472;18.464;2023-01-25T11:54:05;101244.48;;;8.87;40.31
59588;BME280;45412;54.472;18.464;2023-01-25T12:06:20;101224.98;;;7.83;43.54
59588;BME280;45412;54.472;18.464;2023-01-25T12:12:54;101220.11;;;7.29;44.80
59588;BME280;45412;54.472;18.464;2023-01-25T12:17:00;101212.79;;;7.23;45.04
59588;BME280;45412;54.472;18.464;2023-01-25T12:20:30;101207.02;;;7.22;45.42
59588;BME280;45412;54.472;18.464;2023-01-25T12:26:36;101189.66;;;6.92;46.03
59588;BME280;45412;54.472;18.464;2023-01-25T12:29:33;101183.96;;;6.56;46.72
59588;BME280;45412;54.472;18.464;2023-01-25T12:32:39;101180.90;;;6.37;47.40
59588;BME280;45412;54.472;18.464;2023-01-25T12:43:08;101170.72;;;5.88;49.07
59588;BME280;45412;54.472;18.464;2023-01-25T12:45:34;101167.24;;;5.78;49.25
59588;BME280;45412;54.472;18.464;2023-01-25T12:48:35;101168.08;;;5.57;49.53
59588;BME280;45412;54.472;18.464;2023-01-25T12:51:38;101164.41;;;5.29;50.27
59588;BME280;45412;54.472;18.464;2023-01-25T12:54:34;101158.19;;;5.07;51.03
59588;BME280;45412;54.472;18.464;2023-01-25T13:07:06;101150.02;;;2.95;56.86
59588;BME280;45412;54.472;18.464;2023-01-25T13:13:01;101144.52;;;2.33;59.40
59588;BME280;45412;54.472;18.464;2023-01-25T13:15:51;101147.04;;;2.11;60.82
59588;BME280;45412;54.472;18.464;2023-01-25T13:18:40;101144.73;;;1.98;61.47
59588;BME280;45412;54.472;18.464;2023-01-25T13:21:45;101145.02;;;1.93;61.74
59588;BME280;45412;54.472;18.464;2023-01-25T13:27:51;101126.17;;;1.39;63.86
59588;BME280;45412;54.472;18.464;2023-01-25T13:30:52;101121.14;;;1.13;65.09
59588;BME280;45412;54.472;18.464;2023-01-25T13:33:40;101123.23;;;0.88;65.96
59588;BME280;45412;54.472;18.464;2023-01-25T13:42:22;101121.71;;;0.41;68.31
59588;BME280;45412;54.472;18.464;2023-01-25T13:45:17;101124.23;;;0.28;69.06
59588;BME280;45412;54.472;18.464;2023-01-25T13:48:16;101124.98;;;0.14;69.70
59588;BME280;45412;54.472;18.464;2023-01-25T13:51:10;101131.48;;;0.01;70.63
59588;BME280;45412;54.472;18.464;2023-01-25T13:54:01;101124.90;;;-0.11;71.32
59588;BME280;45412;54.472;18.464;2023-01-25T13:57:06;101122.61;;;-0.22;71.90
59588;BME280;45412;54.472;18.464;2023-01-25T14:00:05;101114.89;;;-0.40;72.74
59588;BME280;45412;54.472;18.464;2023-01-25T14:02:57;101116.20;;;-0.57;73.31
59588;BME280;45412;54.472;18.464;2023-01-25T14:05:54;101119.48;;;-0.67;73.53
59588;BME280;45412;54.472;18.464;2023-01-25T14:08:45;101112.43;;;-0.75;74.53
59588;BME280;45412;54.472;18.464;2023-01-25T14:11:43;101102.98;;;-0.83;74.69
59588;BME280;45412;54.472;18.464;2023-01-25T14:14:34;101096.14;;;-0.94;74.90
59588;BME280;45412;54.472;18.464;2023-01-25T14:17:23;101094.45;;;-0.98;75.02
59588;BME280;45412;54.472;18.464;2023-01-25T14:20:20;101084.98;;;-1.05;75.99
59588;BME280;45412;54.472;18.464;2023-01-25T14:23:28;101089.39;;;-1.10;76.46
59588;BME280;45412;54.472;18.464;2023-01-25T14:26:26;101085.70;;;-1.21;76.90
59588;BME280;45412;54.472;18.464;2023-01-25T14:29:18;101091.65;;;-1.24;77.66
59588;BME280;45412;54.472;18.464;2023-01-25T14:32:24;101088.80;;;-1.31;77.93
59588;BME280;45412;54.472;18.464;2023-01-25T14:35:46;101080.30;;;-1.35;78.13
59588;BME280;45412;54.472;18.464;2023-01-25T14:38:46;101077.71;;;-1.38;78.33
59588;BME280;45412;54.472;18.464;2023-01-25T14:41:39;101074.13;;;-1.43;78.63
59588;BME280;45412;54.472;18.464;2023-01-25T14:44:46;101077.87;;;-1.50;79.06
59588;BME280;45412;54.472;18.464;2023-01-25T14:47:34;101083.16;;;-1.57;79.01
59588;BME280;45412;54.472;18.464;2023-01-25T14:50:36;101082.17;;;-1.61;79.07
59588;BME280;45412;54.472;18.464;2023-01-25T14:53:25;101078.03;;;-1.64;79.47
59588;BME280;45412;54.472;18.464;2023-01-25T14:59:38;101077.39;;;-1.70;79.80
59588;BME280;45412;54.472;18.464;2023-01-25T15:02:40;101075.50;;;-1.73;79.79
59588;BME280;45412;54.472;18.464;2023-01-25T15:05:35;101075.69;;;-1.74;80.36
59588;BME280;45412;54.472;18.464;2023-01-25T15:08:27;101073.60;;;-1.74;80.48
59588;BME280;45412;54.472;18.464;2023-01-25T15:11:32;101067.86;;;-1.75;80.60
59588;BME280;45412;54.472;18.464;2023-01-25T15:14:32;101059.73;;;-1.78;80.61
59588;BME280;45412;54.472;18.464;2023-01-25T15:17:48;101057.86;;;-1.82;81.06
59588;BME280;45412;54.472;18.464;2023-01-25T15:20:40;101061.23;;;-1.89;81.00
59588;BME280;45412;54.472;18.464;2023-01-25T15:23:28;101065.13;;;-1.95;81.25
59588;BME280;45412;54.472;18.464;2023-01-25T15:29:21;101058.63;;;-2.07;81.99
59588;BME280;45412;54.472;18.464;2023-01-25T15:32:19;101057.83;;;-2.14;81.87
59588;BME280;45412;54.472;18.464;2023-01-25T15:35:17;101060.48;;;-2.20;82.19
59588;BME280;45412;54.472;18.464;2023-01-25T15:38:09;101065.90;;;-2.23;82.41
59588;BME280;45412;54.472;18.464;2023-01-25T15:40:59;101060.70;;;-2.24;82.47
59588;BME280;45412;54.472;18.464;2023-01-25T15:43:48;101054.79;;;-2.23;82.65
59588;BME280;45412;54.472;18.464;2023-01-25T15:46:40;101059.83;;;-2.24;82.73
59588;BME280;45412;54.472;18.464;2023-01-25T15:49:37;101061.02;;;-2.23;82.80
59588;BME280;45412;54.472;18.464;2023-01-25T15:52:26;101055.13;;;-2.23;83.02
59588;BME280;45412;54.472;18.464;2023-01-25T15:55:16;101044.39;;;-2.26;83.23
59588;BME280;45412;54.472;18.464;2023-01-25T15:58:03;101043.90;;;-2.32;83.67
59588;BME280;45412;54.472;18.464;2023-01-25T16:00:52;101049.52;;;-2.38;83.73
59588;BME280;45412;54.472;18.464;2023-01-25T16:03:40;101057.56;;;-2.44;83.69
59588;BME280;45412;54.472;18.464;2023-01-25T16:09:30;101043.23;;;-2.54;84.53
59588;BME280;45412;54.472;18.464;2023-01-25T16:12:20;101031.66;;;-2.63;85.14
59588;BME280;45412;54.472;18.464;2023-01-25T16:15:09;101034.30;;;-2.69;85.09
59588;BME280;45412;54.472;18.464;2023-01-25T16:17:57;101029.14;;;-2.75;85.39
59588;BME280;45412;54.472;18.464;2023-01-25T16:20:45;101025.52;;;-2.78;85.93
59588;BME280;45412;54.472;18.464;2023-01-25T16:23:33;101017.17;;;-2.80;85.67
59588;BME280;45412;54.472;18.464;2023-01-25T16:26:25;101018.77;;;-2.81;85.68